sensor_id;sensor_type;location;lat;lon;timestamp;pressure;altitude;pressure_sealevel;temperature
82400;BMP280;72039;48.812;8.198;2023-08-06T00:00:03;99567.59;;;18.89
82400;BMP280;72039;48.812;8.198;2023-08-06T00:02:33;99563.38;;;18.86
82400;BMP280;72039;48.812;8.198;2023-08-06T00:05:00;99564.09;;;18.81
82400;BMP280;72039;48.812;8.198;2023-08-06T00:07:27;99557.75;;;18.80
82400;BMP280;72039;48.812;8.198;2023-08-06T00:09:55;99554.94;;;18.80
82400;BMP280;72039;48.812;8.198;2023-08-06T00:12:23;99549.31;;;18.82
82400;BMP280;72039;48.812;8.198;2023-08-06T00:14:52;99536.69;;;18.89
82400;BMP280;72039;48.812;8.198;2023-08-06T00:17:18;99534.56;;;18.94
82400;BMP280;72039;48.812;8.198;2023-08-06T00:19:44;99526.84;;;18.94
82400;BMP280;72039;48.812;8.198;2023-08-06T00:22:11;99535.25;;;18.97
82400;BMP280;72039;48.812;8.198;2023-08-06T00:24:39;99533.16;;;18.99
82400;BMP280;72039;48.812;8.198;2023-08-06T00:27:06;99538.78;;;18.99
82400;BMP280;72039;48.812;8.198;2023-08-06T00:29:37;99533.88;;;19.00
82400;BMP280;72039;48.812;8.198;2023-08-06T00:32:04;99532.47;;;18.99
82400;BMP280;72039;48.812;8.198;2023-08-06T00:34:35;99535.97;;;18.99
82400;BMP280;72039;48.812;8.198;2023-08-06T00:37:00;99531.03;;;19.02
82400;BMP280;72039;48.812;8.198;2023-08-06T00:39:31;99528.97;;;19.00
82400;BMP280;72039;48.812;8.198;2023-08-06T00:41:59;99528.94;;;19.02
82400;BMP280;72039;48.812;8.198;2023-08-06T00:44:24;99528.94;;;19.04
82400;BMP280;72039;48.812;8.198;2023-08-06T00:46:50;99536.66;;;19.02
82400;BMP280;72039;48.812;8.198;2023-08-06T00:49:15;99536.66;;;19.02
82400;BMP280;72039;48.812;8.198;2023-08-06T00:51:47;99535.28;;;19.03
82400;BMP280;72039;48.812;8.198;2023-08-06T00:54:16;99524.03;;;19.07
82400;BMP280;72039;48.812;8.198;2023-08-06T00:56:43;99519.09;;;19.05
82400;BMP280;72039;48.812;8.198;2023-08-06T00:59:09;99526.84;;;19.03
82400;BMP280;72039;48.812;8.198;2023-08-06T01:01:36;99517.69;;;19.04
82400;BMP280;72039;48.812;8.198;2023-08-06T01:04:03;99512.75;;;19.09
82400;BMP280;72039;48.812;8.198;2023-08-06T01:06:42;99502.25;;;19.09
82400;BMP280;72039;48.812;8.198;2023-08-06T01:09:29;99512.06;;;19.06
82400;BMP280;72039;48.812;8.198;2023-08-06T01:17:17;99514.88;;;19.06
82400;BMP280;72039;48.812;8.198;2023-08-06T01:19:42;99509.97;;;19.07
82400;BMP280;72039;48.812;8.198;2023-08-06T01:22:13;99502.91;;;19.06
82400;BMP280;72039;48.812;8.198;2023-08-06T01:24:44;99505.03;;;19.03
82400;BMP280;72039;48.812;8.198;2023-08-06T01:27:46;99491.66;;;19.06
82400;BMP280;72039;48.812;8.198;2023-08-06T01:30:20;99486.75;;;19.06
82400;BMP280;72039;48.812;8.198;2023-08-06T01:32:50;99483.94;;;19.08
82400;BMP280;72039;48.812;8.198;2023-08-06T01:35:20;99487.47;;;19.09
82400;BMP280;72039;48.812;8.198;2023-08-06T01:37:49;99477.63;;;19.10
82400;BMP280;72039;48.812;8.198;2023-08-06T01:40:17;99486.75;;;19.14
82400;BMP280;72039;48.812;8.198;2023-08-06T01:42:44;99487.44;;;19.19
82400;BMP280;72039;48.812;8.198;2023-08-06T01:45:12;99489.56;;;19.21
82400;BMP280;72039;48.812;8.198;2023-08-06T01:47:44;99483.22;;;19.20
82400;BMP280;72039;48.812;8.198;2023-08-06T01:50:10;99483.19;;;19.24
82400;BMP280;72039;48.812;8.198;2023-08-06T01:52:38;99490.97;;;19.28
82400;BMP280;72039;48.812;8.198;2023-08-06T01:55:09;99480.41;;;19.30
82400;BMP280;72039;48.812;8.198;2023-08-06T01:57:34;99495.88;;;19.25
82400;BMP280;72039;48.812;8.198;2023-08-06T02:00:06;99494.50;;;19.16
82400;BMP280;72039;48.812;8.198;2023-08-06T02:02:33;99480.44;;;19.08
82400;BMP280;72039;48.812;8.198;2023-08-06T02:04:59;99477.63;;;19.00
82400;BMP280;72039;48.812;8.198;2023-08-06T02:07:25;99474.84;;;18.89
82400;BMP280;72039;48.812;8.198;2023-08-06T02:09:52;99474.84;;;18.75
82400;BMP280;72039;48.812;8.198;2023-08-06T02:12:17;99472.03;;;18.67
82400;BMP280;72039;48.812;8.198;2023-08-06T02:14:48;99477.69;;;18.63
82400;BMP280;72039;48.812;8.198;2023-08-06T02:17:26;99477.66;;;18.59
82400;BMP280;72039;48.812;8.198;2023-08-06T02:19:56;99476.94;;;18.62
82400;BMP280;72039;48.812;8.198;2023-08-06T02:22:23;99479.75;;;18.64
82400;BMP280;72039;48.812;8.198;2023-08-06T02:24:51;99486.06;;;18.65
82400;BMP280;72039;48.812;8.198;2023-08-06T02:27:22;99498.72;;;18.62
82400;BMP280;72039;48.812;8.198;2023-08-06T02:29:52;99491.69;;;18.53
82400;BMP280;72039;48.812;8.198;2023-08-06T02:32:18;99485.38;;;18.38
82400;BMP280;72039;48.812;8.198;2023-08-06T02:34:43;99485.34;;;18.32
82400;BMP280;72039;48.812;8.198;2023-08-06T02:37:09;99492.34;;;18.33
82400;BMP280;72039;48.812;8.198;2023-08-06T02:39:37;99492.34;;;18.27
82400;BMP280;72039;48.812;8.198;2023-08-06T02:42:08;99492.34;;;18.23
82400;BMP280;72039;48.812;8.198;2023-08-06T02:44:35;99498.63;;;18.13
82400;BMP280;72039;48.812;8.198;2023-08-06T02:47:06;99494.41;;;18.06
82400;BMP280;72039;48.812;8.198;2023-08-06T02:49:31;99502.84;;;18.06
82400;BMP280;72039;48.812;8.198;2023-08-06T02:51:59;99507.03;;;18.07
82400;BMP280;72039;48.812;8.198;2023-08-06T02:54:38;99511.91;;;17.98
82400;BMP280;72039;48.812;8.198;2023-08-06T02:57:04;99516.09;;;17.89
82400;BMP280;72039;48.812;8.198;2023-08-06T02:59:30;99516.72;;;17.77
82400;BMP280;72039;48.812;8.198;2023-08-06T03:02:00;99518.78;;;17.64
82400;BMP280;72039;48.812;8.198;2023-08-06T03:04:30;99505.47;;;17.65
82400;BMP280;72039;48.812;8.198;2023-08-06T03:06:56;99512.47;;;17.66
82400;BMP280;72039;48.812;8.198;2023-08-06T03:09:24;99511.09;;;17.65
82400;BMP280;72039;48.812;8.198;2023-08-06T03:11:52;99513.84;;;17.59
82400;BMP280;72039;48.812;8.198;2023-08-06T03:14:21;99520.81;;;17.52
82400;BMP280;72039;48.812;8.198;2023-08-06T03:16:51;99519.34;;;17.42
82400;BMP280;72039;48.812;8.198;2023-08-06T03:19:35;99513.75;;;17.40
82400;BMP280;72039;48.812;8.198;2023-08-06T03:22:04;99519.34;;;17.40
82400;BMP280;72039;48.812;8.198;2023-08-06T03:24:30;99516.50;;;17.38
82400;BMP280;72039;48.812;8.198;2023-08-06T03:26:58;99510.22;;;17.42
82400;BMP280;72039;48.812;8.198;2023-08-06T03:29:28;99515.91;;;17.46
82400;BMP280;72039;48.812;8.198;2023-08-06T03:31:53;99509.56;;;17.44
82400;BMP280;72039;48.812;8.198;2023-08-06T03:34:18;99516.53;;;17.42
82400;BMP280;72039;48.812;8.198;2023-08-06T03:36:49;99508.13;;;17.42
82400;BMP280;72039;48.812;8.198;2023-08-06T03:39:19;99501.88;;;17.46
82400;BMP280;72039;48.812;8.198;2023-08-06T03:41:45;99503.28;;;17.53
82400;BMP280;72039;48.812;8.198;2023-08-06T03:44:12;99507.53;;;17.58
82400;BMP280;72039;48.812;8.198;2023-08-06T03:46:37;99504.06;;;17.64
82400;BMP280;72039;48.812;8.198;2023-08-06T03:49:05;99508.28;;;17.67
82400;BMP280;72039;48.812;8.198;2023-08-06T03:51:30;99502.66;;;17.65
82400;BMP280;72039;48.812;8.198;2023-08-06T03:53:56;99500.56;;;17.65
82400;BMP280;72039;48.812;8.198;2023-08-06T03:56:22;99499.84;;;17.65
82400;BMP280;72039;48.812;8.198;2023-08-06T03:58:50;99505.47;;;17.65
82400;BMP280;72039;48.812;8.198;2023-08-06T04:01:16;99492.84;;;17.64
82400;BMP280;72039;48.812;8.198;2023-08-06T04:03:41;99497.06;;;17.65
82400;BMP280;72039;48.812;8.198;2023-08-06T04:06:07;99491.41;;;17.63
82400;BMP280;72039;48.812;8.198;2023-08-06T04:08:32;99482.31;;;17.60
82400;BMP280;72039;48.812;8.198;2023-08-06T04:11:05;99483.69;;;17.61
82400;BMP280;72039;48.812;8.198;2023-08-06T04:13:33;99486.53;;;17.65
82400;BMP280;72039;48.812;8.198;2023-08-06T04:16:03;99480.22;;;17.67
82400;BMP280;72039;48.812;8.198;2023-08-06T04:18:28;99483.03;;;17.67
82400;BMP280;72039;48.812;8.198;2023-08-06T04:20:55;99484.44;;;17.70
82400;BMP280;72039;48.812;8.198;2023-08-06T04:23:22;99481.63;;;17.68
82400;BMP280;72039;48.812;8.198;2023-08-06T04:25:48;99483.03;;;17.67
82400;BMP280;72039;48.812;8.198;2023-08-06T04:28:14;99479.50;;;17.62
82400;BMP280;72039;48.812;8.198;2023-08-06T04:30:39;99480.88;;;17.55
82400;BMP280;72039;48.812;8.198;2023-08-06T04:33:05;99471.72;;;17.49
82400;BMP280;72039;48.812;8.198;2023-08-06T04:35:33;99477.31;;;17.45
82400;BMP280;72039;48.812;8.198;2023-08-06T04:37:58;99475.88;;;17.39
82400;BMP280;72039;48.812;8.198;2023-08-06T04:40:24;99477.19;;;17.28
82400;BMP280;72039;48.812;8.198;2023-08-06T04:42:49;99484.88;;;17.24
82400;BMP280;72039;48.812;8.198;2023-08-06T04:45:15;99484.19;;;17.21
82400;BMP280;72039;48.812;8.198;2023-08-06T04:47:43;99484.16;;;17.19
82400;BMP280;72039;48.812;8.198;2023-08-06T04:50:08;99481.28;;;17.13
82400;BMP280;72039;48.812;8.198;2023-08-06T04:52:38;99493.19;;;17.07
82400;BMP280;72039;48.812;8.198;2023-08-06T04:55:04;99492.50;;;17.11
82400;BMP280;72039;48.812;8.198;2023-08-06T04:57:32;99482.00;;;17.09
82400;BMP280;72039;48.812;8.198;2023-08-06T04:59:58;99486.91;;;17.13
82400;BMP280;72039;48.812;8.198;2023-08-06T05:02:23;99484.13;;;17.15
82400;BMP280;72039;48.812;8.198;2023-08-06T05:04:51;99484.81;;;17.13
82400;BMP280;72039;48.812;8.198;2023-08-06T05:07:16;99486.91;;;17.13
82400;BMP280;72039;48.812;8.198;2023-08-06T05:09:44;99489.72;;;17.17
82400;BMP280;72039;48.812;8.198;2023-08-06T05:12:11;99491.13;;;17.14
82400;BMP280;72039;48.812;8.198;2023-08-06T05:14:36;99493.91;;;17.12
82400;BMP280;72039;48.812;8.198;2023-08-06T05:17:04;99493.22;;;17.09
82400;BMP280;72039;48.812;8.198;2023-08-06T05:19:32;99495.28;;;17.07
82400;BMP280;72039;48.812;8.198;2023-08-06T05:22:00;99495.28;;;17.05
82400;BMP280;72039;48.812;8.198;2023-08-06T05:24:27;99499.44;;;17.00
82400;BMP280;72039;48.812;8.198;2023-08-06T05:26:55;99504.34;;;17.01
82400;BMP280;72039;48.812;8.198;2023-08-06T05:29:20;99503.66;;;17.03
82400;BMP280;72039;48.812;8.198;2023-08-06T05:31:46;99507.84;;;17.00
82400;BMP280;72039;48.812;8.198;2023-08-06T05:34:14;99524.56;;;16.91
82400;BMP280;72039;48.812;8.198;2023-08-06T05:36:43;99517.53;;;16.84
82400;BMP280;72039;48.812;8.198;2023-08-06T05:39:10;99521.00;;;16.83
82400;BMP280;72039;48.812;8.198;2023-08-06T05:41:36;99527.28;;;16.79
82400;BMP280;72039;48.812;8.198;2023-08-06T05:44:04;99514.63;;;16.76
82400;BMP280;72039;48.812;8.198;2023-08-06T05:46:29;99518.13;;;16.73
82400;BMP280;72039;48.812;8.198;2023-08-06T05:48:55;99520.94;;;16.75
82400;BMP280;72039;48.812;8.198;2023-08-06T05:51:22;99524.44;;;16.73
82400;BMP280;72039;48.812;8.198;2023-08-06T05:53:48;99523.03;;;16.72
82400;BMP280;72039;48.812;8.198;2023-08-06T05:56:15;99521.59;;;16.71
82400;BMP280;72039;48.812;8.198;2023-08-06T05:58:43;99516.72;;;16.70
82400;BMP280;72039;48.812;8.198;2023-08-06T06:01:10;99517.38;;;16.68
82400;BMP280;72039;48.812;8.198;2023-08-06T06:03:35;99518.09;;;16.69
82400;BMP280;72039;48.812;8.198;2023-08-06T06:06:01;99523.69;;;16.69
82400;BMP280;72039;48.812;8.198;2023-08-06T06:08:32;99524.34;;;16.65
82400;BMP280;72039;48.812;8.198;2023-08-06T06:10:59;99525.72;;;16.62
82400;BMP280;72039;48.812;8.198;2023-08-06T06:13:31;99525.72;;;16.62
82400;BMP280;72039;48.812;8.198;2023-08-06T06:15:57;99534.06;;;16.56
82400;BMP280;72039;48.812;8.198;2023-08-06T06:18:28;99536.84;;;16.54
82400;BMP280;72039;48.812;8.198;2023-08-06T06:20:56;99532.56;;;16.47
82400;BMP280;72039;48.812;8.198;2023-08-06T06:23:26;99540.94;;;16.42
82400;BMP280;72039;48.812;8.198;2023-08-06T06:25:54;99538.19;;;16.47
82400;BMP280;72039;48.812;8.198;2023-08-06T06:28:24;99538.88;;;16.47
82400;BMP280;72039;48.812;8.198;2023-08-06T06:30:51;99538.19;;;16.49
82400;BMP280;72039;48.812;8.198;2023-08-06T06:33:19;99550.81;;;16.52
82400;BMP280;72039;48.812;8.198;2023-08-06T06:35:44;99542.47;;;16.54
82400;BMP280;72039;48.812;8.198;2023-08-06T06:38:10;99551.59;;;16.58
82400;BMP280;72039;48.812;8.198;2023-08-06T06:40:37;99550.22;;;16.59
82400;BMP280;72039;48.812;8.198;2023-08-06T06:43:03;99555.09;;;16.59
82400;BMP280;72039;48.812;8.198;2023-08-06T06:45:28;99555.09;;;16.59
82400;BMP280;72039;48.812;8.198;2023-08-06T06:48:03;99562.81;;;16.62
82400;BMP280;72039;48.812;8.198;2023-08-06T06:50:28;99558.56;;;16.57
82400;BMP280;72039;48.812;8.198;2023-08-06T06:52:57;99569.03;;;16.55
82400;BMP280;72039;48.812;8.198;2023-08-06T06:55:22;99552.19;;;16.49
82400;BMP280;72039;48.812;8.198;2023-08-06T06:57:51;99554.22;;;16.44
82400;BMP280;72039;48.812;8.198;2023-08-06T07:00:16;99554.84;;;16.36
82400;BMP280;72039;48.812;8.198;2023-08-06T07:02:45;99567.44;;;16.35
82400;BMP280;72039;48.812;8.198;2023-08-06T07:05:10;99553.47;;;16.37
82400;BMP280;72039;48.812;8.198;2023-08-06T07:07:44;99550.09;;;16.49
82400;BMP280;72039;48.812;8.198;2023-08-06T07:10:21;99553.66;;;16.56
82400;BMP280;72039;48.812;8.198;2023-08-06T07:12:51;99555.75;;;16.55
82400;BMP280;72039;48.812;8.198;2023-08-06T07:15:19;99555.72;;;16.51
82400;BMP280;72039;48.812;8.198;2023-08-06T07:17:45;99559.22;;;16.52
82400;BMP280;72039;48.812;8.198;2023-08-06T07:20:13;99574.59;;;16.49
82400;BMP280;72039;48.812;8.198;2023-08-06T07:22:38;99560.59;;;16.49
82400;BMP280;72039;48.812;8.198;2023-08-06T07:25:10;99565.44;;;16.46
82400;BMP280;72039;48.812;8.198;2023-08-06T07:27:35;99566.84;;;16.45
82400;BMP280;72039;48.812;8.198;2023-08-06T07:30:02;99551.47;;;16.48
82400;BMP280;72039;48.812;8.198;2023-08-06T07:32:30;99569.75;;;16.53
82400;BMP280;72039;48.812;8.198;2023-08-06T07:34:56;99563.44;;;16.53
82400;BMP280;72039;48.812;8.198;2023-08-06T07:37:26;99559.25;;;16.54
82400;BMP280;72039;48.812;8.198;2023-08-06T07:39:55;99564.13;;;16.53
82400;BMP280;72039;48.812;8.198;2023-08-06T07:42:21;99577.38;;;16.47
82400;BMP280;72039;48.812;8.198;2023-08-06T07:44:52;99566.06;;;16.38
82400;BMP280;72039;48.812;8.198;2023-08-06T07:47:23;99591.22;;;16.34
82400;BMP280;72039;48.812;8.198;2023-08-06T07:49:50;99575.97;;;16.48
82400;BMP280;72039;48.812;8.198;2023-08-06T07:52:17;99574.75;;;16.63
82400;BMP280;72039;48.812;8.198;2023-08-06T07:54:43;99576.25;;;16.76
82400;BMP280;72039;48.812;8.198;2023-08-06T07:57:08;99579.81;;;16.81
82400;BMP280;72039;48.812;8.198;2023-08-06T07:59:42;99569.31;;;16.81
82400;BMP280;72039;48.812;8.198;2023-08-06T08:02:12;99570.63;;;16.70
82400;BMP280;72039;48.812;8.198;2023-08-06T08:04:38;99569.16;;;16.67
82400;BMP280;72039;48.812;8.198;2023-08-06T08:07:10;99584.47;;;16.56
82400;BMP280;72039;48.812;8.198;2023-08-06T08:09:41;99579.44;;;16.46
82400;BMP280;72039;48.812;8.198;2023-08-06T08:12:13;99591.41;;;16.51
82400;BMP280;72039;48.812;8.198;2023-08-06T08:14:41;99580.97;;;16.57
82400;BMP280;72039;48.812;8.198;2023-08-06T08:17:11;99580.31;;;16.61
82400;BMP280;72039;48.812;8.198;2023-08-06T08:19:37;99598.56;;;16.64
82400;BMP280;72039;48.812;8.198;2023-08-06T08:22:08;99595.78;;;16.64
82400;BMP280;72039;48.812;8.198;2023-08-06T08:24:34;99598.59;;;16.66
82400;BMP280;72039;48.812;8.198;2023-08-06T08:27:02;99592.91;;;16.60
82400;BMP280;72039;48.812;8.198;2023-08-06T08:29:30;99601.19;;;16.48
82400;BMP280;72039;48.812;8.198;2023-08-06T08:31:56;99605.25;;;16.36
82400;BMP280;72039;48.812;8.198;2023-08-06T08:34:26;99606.59;;;16.33
82400;BMP280;72039;48.812;8.198;2023-08-06T08:36:54;99593.31;;;16.34
82400;BMP280;72039;48.812;8.198;2023-08-06T08:39:20;99617.81;;;16.33
82400;BMP280;72039;48.812;8.198;2023-08-06T08:41:46;99617.13;;;16.33
82400;BMP280;72039;48.812;8.198;2023-08-06T08:44:15;99617.19;;;16.41
82400;BMP280;72039;48.812;8.198;2023-08-06T08:46:44;99606.75;;;16.44
82400;BMP280;72039;48.812;8.198;2023-08-06T08:49:10;99601.84;;;16.46
82400;BMP280;72039;48.812;8.198;2023-08-06T08:51:38;99609.59;;;16.48
82400;BMP280;72039;48.812;8.198;2023-08-06T08:54:04;99602.59;;;16.49
82400;BMP280;72039;48.812;8.198;2023-08-06T08:56:30;99615.91;;;16.50
82400;BMP280;72039;48.812;8.198;2023-08-06T08:58:56;99617.28;;;16.47
82400;BMP280;72039;48.812;8.198;2023-08-06T09:01:24;99617.88;;;16.39
82400;BMP280;72039;48.812;8.198;2023-08-06T09:03:56;99617.88;;;16.37
82400;BMP280;72039;48.812;8.198;2023-08-06T09:06:23;99608.09;;;16.40
82400;BMP280;72039;48.812;8.198;2023-08-06T09:09:08;99622.16;;;16.45
82400;BMP280;72039;48.812;8.198;2023-08-06T09:11:39;99625.66;;;16.45
82400;BMP280;72039;48.812;8.198;2023-08-06T09:14:11;99634.78;;;16.48
82400;BMP280;72039;48.812;8.198;2023-08-06T09:16:38;99638.94;;;16.45
82400;BMP280;72039;48.812;8.198;2023-08-06T09:19:13;99637.56;;;16.46
82400;BMP280;72039;48.812;8.198;2023-08-06T09:21:41;99644.66;;;16.53
82400;BMP280;72039;48.812;8.198;2023-08-06T09:24:14;99646.09;;;16.54
82400;BMP280;72039;48.812;8.198;2023-08-06T09:26:43;99655.16;;;16.54
82400;BMP280;72039;48.812;8.198;2023-08-06T09:29:09;99673.38;;;16.53
82400;BMP280;72039;48.812;8.198;2023-08-06T09:31:43;99672.72;;;16.57
82400;BMP280;72039;48.812;8.198;2023-08-06T09:34:16;99673.41;;;16.57
82400;BMP280;72039;48.812;8.198;2023-08-06T09:36:50;99671.41;;;16.66
82400;BMP280;72039;48.812;8.198;2023-08-06T09:39:18;99673.56;;;16.67
82400;BMP280;72039;48.812;8.198;2023-08-06T09:41:46;99676.34;;;16.67
82400;BMP280;72039;48.812;8.198;2023-08-06T09:44:21;99675.66;;;16.71
82400;BMP280;72039;48.812;8.198;2023-08-06T09:47:06;99684.16;;;16.77
82400;BMP280;72039;48.812;8.198;2023-08-06T09:49:42;99684.88;;;16.78
82400;BMP280;72039;48.812;8.198;2023-08-06T09:52:12;99683.53;;;16.83
82400;BMP280;72039;48.812;8.198;2023-08-06T09:54:40;99689.88;;;16.87
82400;BMP280;72039;48.812;8.198;2023-08-06T09:57:07;99696.88;;;16.86
82400;BMP280;72039;48.812;8.198;2023-08-06T09:59:34;99696.88;;;16.84
82400;BMP280;72039;48.812;8.198;2023-08-06T10:02:13;99710.81;;;16.80
82400;BMP280;72039;48.812;8.198;2023-08-06T10:04:39;99713.63;;;16.82
82400;BMP280;72039;48.812;8.198;2023-08-06T10:07:06;99712.91;;;16.80
82400;BMP280;72039;48.812;8.198;2023-08-06T10:09:32;99700.28;;;16.79
82400;BMP280;72039;48.812;8.198;2023-08-06T10:11:57;99714.28;;;16.79
82400;BMP280;72039;48.812;8.198;2023-08-06T10:14:35;99712.91;;;16.80
82400;BMP280;72039;48.812;8.198;2023-08-06T10:17:02;99729.78;;;16.84
82400;BMP280;72039;48.812;8.198;2023-08-06T10:19:35;99724.88;;;16.84
82400;BMP280;72039;48.812;8.198;2023-08-06T10:22:08;99736.81;;;16.87
82400;BMP280;72039;48.812;8.198;2023-08-06T10:24:53;99740.25;;;16.83
82400;BMP280;72039;48.812;8.198;2023-08-06T10:27:30;99743.75;;;16.80
82400;BMP280;72039;48.812;8.198;2023-08-06T10:30:25;99747.91;;;16.77
82400;BMP280;72039;48.812;8.198;2023-08-06T10:32:57;99743.72;;;16.78
82400;BMP280;72039;48.812;8.198;2023-08-06T10:36:00;99754.28;;;16.83
82400;BMP280;72039;48.812;8.198;2023-08-06T10:38:29;99763.34;;;16.80
82400;BMP280;72039;48.812;8.198;2023-08-06T10:41:03;99751.47;;;16.83
82400;BMP280;72039;48.812;8.198;2023-08-06T10:43:37;99767.59;;;16.83
82400;BMP280;72039;48.812;8.198;2023-08-06T10:46:09;99778.03;;;16.78
82400;BMP280;72039;48.812;8.198;2023-08-06T10:48:39;99780.84;;;16.78
82400;BMP280;72039;48.812;8.198;2023-08-06T10:51:09;99781.53;;;16.77
82400;BMP280;72039;48.812;8.198;2023-08-06T10:53:37;99789.16;;;16.70
82400;BMP280;72039;48.812;8.198;2023-08-06T10:56:12;99791.22;;;16.67
82400;BMP280;72039;48.812;8.198;2023-08-06T10:58:43;99800.25;;;16.64
82400;BMP280;72039;48.812;8.198;2023-08-06T11:01:10;99807.25;;;16.63
82400;BMP280;72039;48.812;8.198;2023-08-06T11:03:36;99812.25;;;16.71
82400;BMP280;72039;48.812;8.198;2023-08-06T11:06:07;99804.69;;;16.79
82400;BMP280;72039;48.812;8.198;2023-08-06T11:08:38;99815.91;;;16.81
82400;BMP280;72039;48.812;8.198;2023-08-06T11:11:12;99816.56;;;16.78
82400;BMP280;72039;48.812;8.198;2023-08-06T11:13:44;99814.38;;;16.72
82400;BMP280;72039;48.812;8.198;2023-08-06T11:16:13;99817.16;;;16.70
82400;BMP280;72039;48.812;8.198;2023-08-06T11:18:40;99817.22;;;16.74
82400;BMP280;72039;48.812;8.198;2023-08-06T11:21:06;99815.84;;;16.75
82400;BMP280;72039;48.812;8.198;2023-08-06T11:23:34;99820.00;;;16.72
82400;BMP280;72039;48.812;8.198;2023-08-06T11:26:01;99827.59;;;16.65
82400;BMP280;72039;48.812;8.198;2023-08-06T11:28:31;99830.44;;;16.67
82400;BMP280;72039;48.812;8.198;2023-08-06T11:30:57;99819.94;;;16.68
82400;BMP280;72039;48.812;8.198;2023-08-06T11:33:26;99829.69;;;16.67
82400;BMP280;72039;48.812;8.198;2023-08-06T11:35:54;99832.53;;;16.69
82400;BMP280;72039;48.812;8.198;2023-08-06T11:38:20;99840.25;;;16.71
82400;BMP280;72039;48.812;8.198;2023-08-06T11:40:59;99831.22;;;16.76
82400;BMP280;72039;48.812;8.198;2023-08-06T11:43:26;99826.47;;;16.85
82400;BMP280;72039;48.812;8.198;2023-08-06T11:45:51;99840.63;;;16.95
82400;BMP280;72039;48.812;8.198;2023-08-06T11:48:23;99833.66;;;16.98
82400;BMP280;72039;48.812;8.198;2023-08-06T11:50:48;99835.78;;;17.00
82400;BMP280;72039;48.812;8.198;2023-08-06T11:53:15;99828.13;;;17.06
82400;BMP280;72039;48.812;8.198;2023-08-06T11:55:45;99833.78;;;17.08
82400;BMP280;72039;48.812;8.198;2023-08-06T11:58:11;99834.56;;;17.15
82400;BMP280;72039;48.812;8.198;2023-08-06T12:00:39;99826.25;;;17.21
82400;BMP280;72039;48.812;8.198;2023-08-06T12:03:09;99831.22;;;17.29
82400;BMP280;72039;48.812;8.198;2023-08-06T12:05:37;99830.59;;;17.34
82400;BMP280;72039;48.812;8.198;2023-08-06T12:08:08;99829.97;;;17.40
82400;BMP280;72039;48.812;8.198;2023-08-06T12:10:34;99831.47;;;17.49
82400;BMP280;72039;48.812;8.198;2023-08-06T12:13:01;99837.19;;;17.59
82400;BMP280;72039;48.812;8.198;2023-08-06T12:15:28;99838.69;;;17.66
82400;BMP280;72039;48.812;8.198;2023-08-06T12:17:55;99842.16;;;17.67
82400;BMP280;72039;48.812;8.198;2023-08-06T12:20:23;99842.22;;;17.71
82400;BMP280;72039;48.812;8.198;2023-08-06T12:22:50;99840.16;;;17.76
82400;BMP280;72039;48.812;8.198;2023-08-06T12:25:15;99838.81;;;17.83
82400;BMP280;72039;48.812;8.198;2023-08-06T12:27:43;99841.00;;;17.90
82400;BMP280;72039;48.812;8.198;2023-08-06T12:30:11;99841.09;;;18.01
82400;BMP280;72039;48.812;8.198;2023-08-06T12:32:37;99842.56;;;18.06
82400;BMP280;72039;48.812;8.198;2023-08-06T12:35:07;99847.47;;;18.09
82400;BMP280;72039;48.812;8.198;2023-08-06T12:37:34;99853.78;;;18.10
82400;BMP280;72039;48.812;8.198;2023-08-06T12:40:00;99863.63;;;18.11
82400;BMP280;72039;48.812;8.198;2023-08-06T12:42:28;99867.13;;;18.11
82400;BMP280;72039;48.812;8.198;2023-08-06T12:44:53;99870.69;;;18.16
82400;BMP280;72039;48.812;8.198;2023-08-06T12:47:20;99863.66;;;18.13
82400;BMP280;72039;48.812;8.198;2023-08-06T12:49:50;99855.97;;;18.15
82400;BMP280;72039;48.812;8.198;2023-08-06T12:52:17;99881.28;;;18.24
82400;BMP280;72039;48.812;8.198;2023-08-06T12:54:45;99872.19;;;18.27
82400;BMP280;72039;48.812;8.198;2023-08-06T12:57:16;99873.63;;;18.30
82400;BMP280;72039;48.812;8.198;2023-08-06T12:59:42;99870.88;;;18.36
82400;BMP280;72039;48.812;8.198;2023-08-06T13:02:07;99870.19;;;18.42
82400;BMP280;72039;48.812;8.198;2023-08-06T13:04:33;99855.53;;;18.52
82400;BMP280;72039;48.812;8.198;2023-08-06T13:06:59;99869.66;;;18.62
82400;BMP280;72039;48.812;8.198;2023-08-06T13:09:24;99862.66;;;18.63
82400;BMP280;72039;48.812;8.198;2023-08-06T13:11:53;99859.16;;;18.66
82400;BMP280;72039;48.812;8.198;2023-08-06T13:14:21;99860.56;;;18.67
82400;BMP280;72039;48.812;8.198;2023-08-06T13:16:47;99862.63;;;18.65
82400;BMP280;72039;48.812;8.198;2023-08-06T13:19:16;99857.00;;;18.65
82400;BMP280;72039;48.812;8.198;2023-08-06T13:24:15;99859.16;;;18.73
82400;BMP280;72039;48.812;8.198;2023-08-06T13:26:41;99857.81;;;18.80
82400;BMP280;72039;48.812;8.198;2023-08-06T13:29:13;99861.38;;;18.88
82400;BMP280;72039;48.812;8.198;2023-08-06T13:31:38;99867.72;;;18.95
82400;BMP280;72039;48.812;8.198;2023-08-06T13:34:04;99857.22;;;19.06
82400;BMP280;72039;48.812;8.198;2023-08-06T13:36:30;99865.75;;;19.22
82400;BMP280;72039;48.812;8.198;2023-08-06T13:38:56;99862.97;;;19.30
82400;BMP280;72039;48.812;8.198;2023-08-06T13:41:21;99877.75;;;19.31
82400;BMP280;72039;48.812;8.198;2023-08-06T13:43:47;99875.63;;;19.31
82400;BMP280;72039;48.812;8.198;2023-08-06T13:46:13;99891.81;;;19.31
82400;BMP280;72039;48.812;8.198;2023-08-06T13:48:47;99907.97;;;19.26
82400;BMP280;72039;48.812;8.198;2023-08-06T13:51:17;99905.84;;;19.25
82400;BMP280;72039;48.812;8.198;2023-08-06T13:53:43;99899.53;;;19.28
82400;BMP280;72039;48.812;8.198;2023-08-06T13:56:21;99915.03;;;19.37
82400;BMP280;72039;48.812;8.198;2023-08-06T13:58:49;99909.38;;;19.29
82400;BMP280;72039;48.812;8.198;2023-08-06T14:01:17;99909.31;;;19.17
82400;BMP280;72039;48.812;8.198;2023-08-06T14:03:46;99919.81;;;19.08
82400;BMP280;72039;48.812;8.198;2023-08-06T14:06:11;99907.19;;;19.09
82400;BMP280;72039;48.812;8.198;2023-08-06T14:08:36;99923.38;;;19.13
82400;BMP280;72039;48.812;8.198;2023-08-06T14:11:02;99930.38;;;19.08
82400;BMP280;72039;48.812;8.198;2023-08-06T14:13:27;99927.56;;;19.10
82400;BMP280;72039;48.812;8.198;2023-08-06T14:15:54;99931.06;;;19.10
82400;BMP280;72039;48.812;8.198;2023-08-06T14:18:20;99939.56;;;19.16
82400;BMP280;72039;48.812;8.198;2023-08-06T14:20:50;99934.69;;;19.29
82400;BMP280;72039;48.812;8.198;2023-08-06T14:23:21;99935.50;;;19.48